This is the latest recevied weather packets stored in our database for station/object KB1RMA-4. If no packets are shown the sender has not sent any weather packets the latest 10 day(s).
| Time | Temp. | Humidity | Pressure | Rain* | Wind** | Luminosity | Snow |
|---|---|---|---|---|---|---|---|
| 1787682962 | 26.11° C | 54% | 1013 hPa | 0 mm | - | 255 W/m² | - |
| 1787682657 | 26.67° C | 49% | 1012.8 hPa | 0 mm | - | 643 W/m² | - |
| 1787682353 | 26.67° C | 51% | 1012.8 hPa | 0 mm | - | 855 W/m² | - |
| 1787682049 | 26.11° C | 51% | 1012.8 hPa | 0 mm | - | 794 W/m² | - |
| 1787681744 | 25° C | 53% | 1012.8 hPa | 0 mm | - | 571 W/m² | - |
| 1787681438 | 25.56° C | 53% | 1013 hPa | 0 mm | - | 189 W/m² | - |
| 1787681132 | 26.11° C | 51% | 1012.8 hPa | 0 mm | - | 214 W/m² | - |
| 1787680828 | 24.44° C | 54% | 1012.9 hPa | 0 mm | - | 763 W/m² | - |
| 1787680523 | 25.56° C | 54% | 1012.8 hPa | 0 mm | - | 136 W/m² | - |
| 1787680222 | 25° C | 52% | 1012.6 hPa | 0 mm | - | 732 W/m² | - |
| 1787679921 | 25° C | 54% | 1012.6 hPa | 0 mm | - | 223 W/m² | - |
| 1787679621 | 25° C | 54% | 1012.9 hPa | 0 mm | - | 171 W/m² | - |
| 1787679317 | 26.11° C | 51% | 1012.8 hPa | 0 mm | - | 201 W/m² | - |
| 1787679013 | 26.11° C | 51% | 1012.7 hPa | 0 mm | - | 755 W/m² | - |
| 1787678712 | 26.11° C | 53% | 1013 hPa | 0 mm | - | 740 W/m² | - |
| 1787678407 | 26.11° C | 53% | 1012.8 hPa | 0 mm | - | 727 W/m² | - |
| 1787678102 | 25.56° C | 52% | 1012.9 hPa | 0 mm | - | 321 W/m² | - |
| 1787677802 | 25° C | 53% | 1013 hPa | 0 mm | - | 293 W/m² | - |
| 1787677497 | 25° C | 52% | 1013.2 hPa | 0 mm | - | 251 W/m² | - |
| 1787677195 | 26.11° C | 50% | 1012.8 hPa | 0 mm | - | 268 W/m² | - |
| 1787676895 | 25.56° C | 50% | 1013.1 hPa | 0 mm | - | 764 W/m² | - |
| 1787676590 | 25.56° C | 52% | 1013.1 hPa | 0 mm | - | 787 W/m² | - |
| 1787676287 | 25° C | 52% | 1012.9 hPa | 0 mm | - | 317 W/m² | - |
| 1787675983 | 25° C | 52% | 1013.2 hPa | 0 mm | - | 277 W/m² | - |
| 1787675678 | 25° C | 51% | 1013.2 hPa | 0 mm | - | 286 W/m² | - |
* Rain latest hour (hover to see other rain measurements)
** Current wind speed in m/s (hover to see current wind gust speed)